Time;durP1;ratioP1;P1;durP2;ratioP2;P2;SDS_P1;SDS_P2;PMS_P1;PMS_P2;Temp;Humidity;BMP_temperature;BMP_pressure;BME280_temperature;BME280_humidity;BME280_pressure;Samples;Min_cycle;Max_cycle;Signal;HPM_P1;HPM_P2
2022/01/06 00:02:00;;;;;;;;;;;4.90;99.90;;;;;;4937393;29;20059;-76
2022/01/06 00:04:26;;;;;;;17.85;3.10;;;4.90;99.90;;;;;;4920171;29;19936;-76
2022/01/06 00:06:51;;;;;;;;;;;4.90;99.90;;;;;;4919550;29;20427;-76
2022/01/06 00:09:18;;;;;;;17.30;2.60;;;4.80;99.90;;;;;;4922735;29;19923;-76
2022/01/06 00:11:44;;;;;;;8.30;2.50;;;4.80;99.90;;;;;;4946314;29;20491;-76
2022/01/06 00:14:21;;;;;;;;;;;4.80;99.90;;;;;;4921273;29;20053;-76
2022/01/06 00:17:03;;;;;;;7.97;1.75;;;4.70;99.90;;;;;;4937392;29;19930;-75
2022/01/06 00:24:57;;;;;;;10.93;2.08;;;4.60;99.90;;;;;;4919981;29;20055;-76
2022/01/06 00:27:23;;;;;;;;;;;4.60;99.90;;;;;;4920864;29;20050;-74
2022/01/06 00:29:48;;;;;;;13.43;2.55;;;4.60;99.90;;;;;;4920847;29;19923;-75
2022/01/06 00:32:14;;;;;;;;;;;4.70;99.90;;;;;;4920597;29;20587;-75
2022/01/06 00:34:41;;;;;;;7.85;1.70;;;4.70;99.90;;;;;;4920733;29;19922;-76
2022/01/06 00:37:07;;;;;;;8.23;1.88;;;4.80;99.90;;;;;;4935953;29;20407;-75
2022/01/06 00:39:33;;;;;;;8.57;1.60;;;4.90;99.90;;;;;;4920139;29;20056;-75
2022/01/06 00:42:00;;;;;;;;;;;4.90;99.90;;;;;;4920382;29;20059;-75
2022/01/06 00:44:26;;;;;;;10.90;2.90;;;4.90;99.90;;;;;;4935941;29;20383;-75
2022/01/06 00:46:53;;;;;;;8.18;2.25;;;4.90;99.90;;;;;;4919794;29;20055;-75
2022/01/06 00:49:22;;;;;;;11.93;2.45;;;4.80;99.90;;;;;;4920248;29;20414;-76
2022/01/06 00:51:48;;;;;;;10.38;2.10;;;4.80;99.90;;;;;;4935691;29;20053;-76
2022/01/06 00:54:13;;;;;;;;;;;4.70;99.90;;;;;;4919878;29;20126;-76
2022/01/06 00:56:39;;;;;;;12.27;3.10;;;4.60;99.90;;;;;;4920310;29;19938;-75
2022/01/06 00:59:04;;;;;;;;;;;4.50;99.90;;;;;;4920305;29;20504;-75
2022/01/06 01:01:30;;;;;;;9.82;1.80;;;4.50;99.90;;;;;;4935779;29;19923;-75
2022/01/06 01:03:56;;;;;;;;;;;4.40;99.90;;;;;;4920218;29;20058;-75
2022/01/06 01:06:21;;;;;;;13.05;2.30;;;4.30;99.90;;;;;;4919892;29;20013;-76
2022/01/06 01:08:47;;;;;;;;;;;4.30;99.90;;;;;;4920271;29;20135;-74
2022/01/06 01:11:16;;;;;;;8.95;2.22;;;4.40;99.90;;;;;;4919612;29;20688;-75
2022/01/06 01:13:56;;;;;;;7.80;1.63;;;4.30;99.90;;;;;;4919420;29;20035;-75
2022/01/06 01:16:30;;;;;;;8.45;1.73;;;4.30;99.90;;;;;;4919032;29;20530;-76
2022/01/06 01:19:00;;;;;;;;;;;4.30;99.90;;;;;;4918318;29;20075;-76
2022/01/06 01:21:30;;;;;;;8.02;2.28;;;4.30;99.90;;;;;;4916791;29;19982;-76
2022/01/06 01:23:57;;;;;;;10.13;2.22;;;4.30;99.90;;;;;;4918706;29;20098;-75
2022/01/06 01:26:25;;;;;;;16.45;2.47;;;4.20;99.90;;;;;;4933753;29;20047;-75
2022/01/06 01:28:52;;;;;;;9.70;2.15;;;4.20;99.90;;;;;;4917193;29;20563;-75
2022/01/06 01:33:48;;;;;;;13.45;2.17;;;4.20;99.90;;;;;;4917561;29;20056;-75
2022/01/06 01:36:17;;;;;;;15.93;2.10;;;4.20;99.90;;;;;;4917305;29;20134;-75
2022/01/06 01:38:46;;;;;;;11.23;3.70;;;4.00;99.90;;;;;;4934711;29;20048;-75
2022/01/06 01:41:12;;;;;;;10.10;2.00;;;4.10;99.90;;;;;;4917841;29;20052;-75
2022/01/06 01:43:38;;;;;;;;;;;4.10;99.90;;;;;;4919378;29;20451;-75
2022/01/06 01:46:14;;;;;;;11.17;1.93;;;4.10;99.90;;;;;;4918905;29;19930;-75
2022/01/06 01:48:45;;;;;;;16.97;1.80;;;4.10;99.90;;;;;;4919081;29;20447;-75
2022/01/06 01:51:10;;;;;;;10.52;1.98;;;4.00;99.90;;;;;;4919606;29;20446;-75
2022/01/06 01:53:36;;;;;;;;;;;4.00;99.90;;;;;;4919561;29;20130;-75
2022/01/06 01:56:08;;;;;;;8.07;1.95;;;4.00;99.90;;;;;;4918861;29;19929;-76
2022/01/06 01:58:35;;;;;;;15.60;2.88;;;4.00;99.90;;;;;;4919453;29;20511;-76
2022/01/06 02:01:00;;;;;;;4.70;1.58;;;3.90;99.90;;;;;;4918565;29;20055;-75
2022/01/06 02:03:26;;;;;;;;;;;3.90;99.90;;;;;;4918729;29;20051;-75
2022/01/06 02:05:51;;;;;;;8.63;1.80;;;3.90;99.90;;;;;;4919258;29;19962;-75
2022/01/06 02:08:23;;;;;;;;;;;3.80;99.90;;;;;;4919303;29;20058;-76
2022/01/06 02:10:49;;;;;;;8.95;1.60;;;3.80;99.90;;;;;;4918452;29;19946;-76
2022/01/06 02:13:15;;;;;;;;;;;3.80;99.90;;;;;;4919293;29;20484;-76
2022/01/06 02:15:41;;;;;;;12.18;2.92;;;3.70;99.90;;;;;;4918278;29;19997;-76
2022/01/06 02:18:07;;;;;;;;;;;3.70;99.90;;;;;;4935391;29;20503;-76
2022/01/06 02:20:32;;;;;;;12.18;2.50;;;3.70;99.90;;;;;;4919082;29;19966;-76
2022/01/06 02:22:58;;;;;;;;;;;3.70;99.90;;;;;;4919131;29;20047;-76
2022/01/06 02:25:32;;;;;;;9.45;1.85;;;3.70;99.90;;;;;;4918013;29;20017;-75
2022/01/06 02:28:02;;;;;;;14.80;2.03;;;3.70;99.90;;;;;;4918857;29;20507;-76
2022/01/06 02:30:31;;;;;;;17.45;2.63;;;3.70;99.90;;;;;;4918254;29;20488;-76
2022/01/06 02:32:59;;;;;;;11.68;2.30;;;3.70;99.90;;;;;;4899227;29;20104;-75
2022/01/06 02:35:27;;;;;;;8.63;2.45;;;3.70;99.90;;;;;;4899301;29;20162;-76
2022/01/06 02:37:54;;;;;;;7.47;1.65;;;3.60;99.90;;;;;;4899687;29;20063;-76
2022/01/06 02:40:22;;;;;;;10.23;1.90;;;3.60;99.90;;;;;;4899250;29;20044;-75
2022/01/06 02:42:55;;;;;;;13.13;2.45;;;3.60;99.90;;;;;;4899421;29;20139;-75
2022/01/06 02:45:26;;;;;;;10.48;2.08;;;3.50;99.90;;;;;;4915718;29;20568;-74
2022/01/06 02:47:52;;;;;;;9.85;2.03;;;3.50;99.90;;;;;;4917829;29;20563;-75
2022/01/06 02:50:18;;;;;;;;;;;3.40;99.90;;;;;;4918278;29;20052;-75
2022/01/06 02:52:44;;;;;;;14.02;2.50;;;3.40;99.90;;;;;;4917886;29;20295;-75
2022/01/06 02:55:12;;;;;;;9.73;1.95;;;3.40;99.90;;;;;;4918023;29;20504;-75
2022/01/06 02:57:39;;;;;;;14.15;2.97;;;3.40;99.90;;;;;;4918340;29;20139;-74
2022/01/06 03:00:10;;;;;;;9.98;1.92;;;3.40;99.90;;;;;;4917374;29;20047;-75
2022/01/06 03:02:35;;;;;;;7.25;1.60;;;3.40;99.90;;;;;;4918229;29;20059;-75
2022/01/06 03:05:01;;;;;;;;;;;3.40;99.90;;;;;;4918337;29;20051;-75
2022/01/06 03:07:27;;;;;;;9.98;2.30;;;3.30;99.90;;;;;;4917626;29;20294;-75
2022/01/06 03:09:55;;;;;;;;;;;3.30;99.90;;;;;;4918494;29;20085;-75
2022/01/06 03:12:32;;;;;;;10.70;1.90;;;3.30;99.90;;;;;;4918110;29;19922;-75
2022/01/06 03:14:57;;;;;;;12.02;1.67;;;3.30;99.90;;;;;;4917871;29;20047;-75
2022/01/06 03:17:23;;;;;;;;;;;3.30;99.90;;;;;;4935446;29;20063;-75
2022/01/06 03:19:49;;;;;;;13.13;2.28;;;3.30;99.90;;;;;;4917853;29;19975;-75
2022/01/06 03:22:14;;;;;;;;;;;3.20;99.90;;;;;;4917525;29;20074;-75
2022/01/06 03:24:40;;;;;;;12.02;1.65;;;3.20;99.90;;;;;;4918375;29;19978;-75
2022/01/06 03:27:06;;;;;;;10.88;2.20;;;3.10;99.90;;;;;;4920761;29;20047;-75
2022/01/06 03:29:31;;;;;;;;;;;3.00;99.90;;;;;;4921963;29;20400;-75
2022/01/06 03:31:58;;;;;;;9.75;2.00;;;3.00;99.90;;;;;;4920816;29;19986;-75
2022/01/06 03:34:26;;;;;;;9.82;2.25;;;3.00;99.90;;;;;;4920802;29;20048;-75
2022/01/06 03:36:59;;;;;;;12.05;1.92;;;2.90;99.90;;;;;;4938698;29;20043;-75
2022/01/06 03:39:25;;;;;;;7.57;1.88;;;2.80;99.90;;;;;;4921579;29;20056;-75
2022/01/06 03:41:50;;;;;;;;;;;2.70;99.90;;;;;;4921375;29;20052;-75
2022/01/06 03:44:16;;;;;;;10.65;2.55;;;2.70;99.90;;;;;;4920971;29;19923;-75
2022/01/06 03:46:41;;;;;;;;;;;2.60;99.90;;;;;;4921880;29;20493;-75
2022/01/06 03:49:07;;;;;;;8.75;2.22;;;2.50;99.90;;;;;;4920315;29;20006;-74
2022/01/06 03:51:35;;;;;;;7.28;1.65;;;2.40;99.90;;;;;;4921231;29;20048;-75
2022/01/06 03:54:01;;;;;;;;;;;2.40;99.90;;;;;;4921560;29;20051;-75
2022/01/06 03:56:26;;;;;;;7.63;2.45;;;2.30;99.90;;;;;;4920717;29;19926;-75
2022/01/06 03:58:52;;;;;;;;;;;2.20;99.90;;;;;;4921711;29;20484;-75
2022/01/06 04:01:18;;;;;;;6.22;1.42;;;2.10;99.90;;;;;;4920793;29;19972;-75
2022/01/06 04:03:46;;;;;;;;;;;2.10;99.90;;;;;;4938423;29;20539;-74
2022/01/06 04:06:11;;;;;;;8.85;1.95;;;2.00;99.90;;;;;;4937751;29;19929;-75
2022/01/06 04:08:37;;;;;;;;;;;2.00;99.90;;;;;;4921488;29;20416;-75
2022/01/06 04:11:06;;;;;;;11.68;1.92;;;1.90;99.90;;;;;;4920545;29;19922;-75
2022/01/06 04:13:33;;;;;;;7.80;1.30;;;1.90;99.90;;;;;;4920835;29;20059;-74
2022/01/06 04:16:03;;;;;;;9.80;1.73;;;1.80;99.90;;;;;;4920958;29;20048;-74
2022/01/06 04:18:29;;;;;;;10.57;1.48;;;1.80;99.90;;;;;;4920111;29;20047;-74
2022/01/06 04:20:54;;;;;;;;;;;1.70;99.90;;;;;;4921203;29;20169;-74
2022/01/06 04:23:20;;;;;;;5.45;1.50;;;1.70;99.90;;;;;;4920529;29;19962;-74
2022/01/06 04:25:45;;;;;;;;;;;1.60;99.90;;;;;;4920326;29;20479;-75
2022/01/06 04:28:14;;;;;;;5.90;2.60;;;1.60;99.90;;;;;;4920494;29;19922;-74
2022/01/06 04:30:40;;;;;;;7.43;1.77;;;1.50;99.90;;;;;;4920485;29;20440;-74
2022/01/06 04:33:05;;;;;;;;;;;1.50;99.90;;;;;;4920971;29;20093;-74
2022/01/06 04:35:31;;;;;;;7.43;1.40;;;1.40;99.90;;;;;;4920847;29;19978;-75
2022/01/06 04:37:57;;;;;;;;;;;1.40;99.90;;;;;;4919559;29;20552;-74
2022/01/06 04:40:22;;;;;;;8.80;2.08;;;1.40;99.90;;;;;;4919519;29;19966;-74
2022/01/06 04:42:48;;;;;;;;;;;1.40;99.90;;;;;;4920561;29;20055;-75
2022/01/06 04:45:14;;;;;;;8.75;2.30;;;1.30;99.90;;;;;;4919138;29;19922;-74
2022/01/06 04:47:39;;;;;;;;;;;1.30;99.90;;;;;;4920479;29;20134;-74
2022/01/06 04:50:06;;;;;;;6.03;2.00;;;1.30;99.90;;;;;;4920288;29;19978;-75
2022/01/06 04:52:34;;;;;;;6.80;1.75;;;1.30;99.90;;;;;;4919771;29;20040;-74
2022/01/06 04:55:04;;;;;;;7.95;1.52;;;1.30;99.90;;;;;;4919978;29;20063;-74
2022/01/06 04:57:30;;;;;;;6.45;1.30;;;1.30;99.90;;;;;;4919641;29;20056;-74
2022/01/06 04:59:56;;;;;;;;;;;1.30;99.90;;;;;;4920246;29;20051;-74
2022/01/06 05:02:21;;;;;;;7.70;1.70;;;1.20;99.90;;;;;;4919289;29;19973;-74
2022/01/06 05:04:47;;;;;;;;;;;1.20;99.90;;;;;;4918974;29;20134;-74
2022/01/06 05:07:12;;;;;;;8.30;1.73;;;1.20;99.90;;;;;;4917218;29;19965;-75
2022/01/06 05:09:38;;;;;;;;;;;1.20;99.90;;;;;;4918207;29;20193;-74
2022/01/06 05:12:04;;;;;;;8.85;1.80;;;1.20;99.90;;;;;;4917754;29;19930;-75
2022/01/06 05:14:29;;;;;;;;;;;1.10;99.90;;;;;;4917671;29;20075;-75
2022/01/06 05:16:56;;;;;;;6.50;1.50;;;1.10;99.90;;;;;;4918419;29;19923;-75
2022/01/06 05:19:23;;;;;;;6.70;1.90;;;1.00;99.90;;;;;;4917771;29;20047;-75
2022/01/06 05:21:49;;;;;;;6.13;1.40;;;1.00;99.90;;;;;;4918039;29;20043;-75
2022/01/06 05:24:17;;;;;;;5.88;1.60;;;1.00;99.90;;;;;;4919390;29;20062;-75
2022/01/06 05:26:42;;;;;;;6.95;1.42;;;1.00;99.90;;;;;;4935831;29;20127;-75
2022/01/06 05:29:08;;;;;;;;;;;1.00;99.90;;;;;;4919141;29;20139;-75
2022/01/06 05:31:34;;;;;;;9.30;2.03;;;1.00;99.90;;;;;;4919659;29;20025;-75
2022/01/06 05:34:00;;;;;;;;;;;1.00;99.90;;;;;;4918887;29;20532;-75
2022/01/06 05:36:25;;;;;;;10.38;1.95;;;0.90;99.90;;;;;;4919178;29;19927;-75
2022/01/06 05:38:54;;;;;;;;;;;0.90;99.90;;;;;;4919868;29;20071;-75
2022/01/06 05:41:19;;;;;;;7.68;1.77;;;0.90;99.90;;;;;;4918207;29;19922;-75
2022/01/06 05:43:48;;;;;;;;;;;0.90;99.90;;;;;;4919942;29;20063;-73
2022/01/06 05:46:13;;;;;;;7.45;1.92;;;0.90;99.90;;;;;;4935499;29;19934;-75
2022/01/06 05:48:42;;;;;;;7.57;1.75;;;0.90;99.90;;;;;;4918786;29;20048;-74
2022/01/06 05:51:08;;;;;;;;;;;0.90;99.90;;;;;;4916100;29;20055;-75
2022/01/06 05:53:33;;;;;;;8.45;1.70;;;0.90;99.90;;;;;;4900315;29;19931;-75
2022/01/06 05:55:59;;;;;;;;;;;0.90;99.90;;;;;;4900168;29;20081;-74
2022/01/06 05:58:27;;;;;;;7.75;1.60;;;0.90;99.90;;;;;;4910586;29;19923;-74
2022/01/06 06:00:53;;;;;;;;;;;0.90;99.90;;;;;;4919102;29;20062;-74
2022/01/06 06:03:18;;;;;;;6.15;1.90;;;0.90;99.90;;;;;;4918062;29;19929;-74
2022/01/06 06:05:44;;;;;;;;;;;0.80;99.90;;;;;;4936059;29;20183;-74
2022/01/06 06:08:10;;;;;;;8.00;1.77;;;0.80;99.90;;;;;;4935964;29;19929;-74
2022/01/06 06:10:45;;;;;;;7.43;2.35;;;0.70;99.90;;;;;;4918308;29;20059;-75
2022/01/06 06:13:10;;;;;;;9.35;2.75;;;0.70;99.90;;;;;;4935461;29;20056;-74
2022/01/06 06:15:36;;;;;;;;;;;0.70;99.90;;;;;;4936191;29;20031;-74
2022/01/06 06:18:06;;;;;;;9.30;2.10;;;0.70;99.90;;;;;;4918295;29;20397;-74
2022/01/06 06:20:37;;;;;;;11.55;2.70;;;0.70;99.90;;;;;;4918719;29;20055;-74
2022/01/06 06:23:03;;;;;;;10.95;2.00;;;0.70;99.90;;;;;;4918053;29;20079;-74
2022/01/06 06:25:32;;;;;;;14.63;2.40;;;0.70;99.90;;;;;;4934170;29;20559;-74
2022/01/06 06:27:57;;;;;;;;;;;0.70;99.90;;;;;;4919040;29;20159;-74
2022/01/06 06:30:23;;;;;;;8.00;3.33;;;0.70;99.90;;;;;;4917516;29;19969;-74
2022/01/06 06:32:48;;;;;;;;;;;0.70;99.90;;;;;;4918996;29;20051;-74
2022/01/06 06:35:14;;;;;;;7.18;3.55;;;0.70;99.90;;;;;;4918039;29;19968;-74
2022/01/06 06:37:40;;;;;;;;;;;0.70;99.90;;;;;;4918733;29;20087;-74
2022/01/06 06:40:06;;;;;;;14.52;3.78;;;0.60;99.90;;;;;;4935404;29;19927;-74
2022/01/06 06:42:35;;;;;;;11.73;4.07;;;0.60;99.90;;;;;;4918196;29;20557;-74
2022/01/06 06:45:01;;;;;;;19.50;8.40;;;0.70;99.90;;;;;;4917929;29;20440;-74
2022/01/06 06:47:26;;;;;;;;;;;0.70;99.90;;;;;;4918083;29;20040;-74
2022/01/06 06:49:55;;;;;;;23.85;10.05;;;0.70;99.90;;;;;;4918615;29;19923;-73
2022/01/06 06:52:21;;;;;;;36.70;15.88;;;1.80;99.90;;;;;;4917401;29;20048;-74
2022/01/06 06:54:48;;;;;;;;;;;0.90;99.90;;;;;;4918668;29;20381;-74
2022/01/06 06:57:13;;;;;;;13.88;3.70;;;0.90;99.90;;;;;;4917777;29;19926;-74
2022/01/06 06:59:39;;;;;;;;;;;1.00;99.90;;;;;;4918304;29;20043;-75
2022/01/06 07:02:05;;;;;;;11.00;3.45;;;1.10;99.90;;;;;;4937889;29;20368;-75
2022/01/06 07:04:31;;;;;;;;;;;0.80;99.90;;;;;;4922678;29;20103;-75
2022/01/06 07:06:56;;;;;;;8.52;2.80;;;1.20;99.90;;;;;;4921814;29;19918;-74
2022/01/06 07:09:22;;;;;;;;;;;1.30;99.90;;;;;;4922003;29;20103;-74
2022/01/06 07:11:48;;;;;;;12.70;2.65;;;1.40;99.90;;;;;;4921680;29;20013;-75
2022/01/06 07:14:13;;;;;;;;;;;1.40;99.90;;;;;;4938631;29;20130;-75
2022/01/06 07:16:39;;;;;;;12.27;3.15;;;1.60;99.90;;;;;;4921530;29;19923;-75
2022/01/06 07:19:04;;;;;;;;;;;1.70;99.90;;;;;;4922317;29;20055;-75
2022/01/06 07:21:39;;;;;;;8.82;2.65;;;1.80;99.90;;;;;;4920441;29;19922;-75
2022/01/06 07:24:05;;;;;;;4.32;1.70;;;1.90;99.90;;;;;;4921830;29;20111;-75
2022/01/06 07:26:31;;;;;;;9.45;1.60;;;2.40;99.90;;;;;;4921227;29;20047;-75
2022/01/06 07:28:57;;;;;;;;;;;2.20;99.90;;;;;;4939260;29;20206;-75
2022/01/06 07:31:25;;;;;;;8.43;2.05;;;2.30;99.90;;;;;;4921408;29;19926;-75
2022/01/06 07:33:51;;;;;;;6.25;1.17;;;2.30;99.90;;;;;;4916495;29;20104;-75
2022/01/06 07:36:16;;;;;;;;;;;2.30;99.90;;;;;;4902790;29;20056;-75
2022/01/06 07:38:42;;;;;;;6.57;2.50;;;2.30;99.90;;;;;;4909699;29;20216;-75
2022/01/06 07:41:08;;;;;;;;;;;2.30;99.90;;;;;;4921016;29;20073;-75
2022/01/06 07:43:36;;;;;;;9.63;2.95;;;2.20;99.90;;;;;;4921245;29;20293;-75
2022/01/06 07:46:04;;;;;;;13.48;3.58;;;2.30;99.90;;;;;;4921313;29;20119;-75
2022/01/06 07:48:55;;;;;;;6.53;2.78;;;2.30;99.90;;;;;;4920280;29;20048;-75
2022/01/06 07:51:22;;;;;;;5.35;2.33;;;2.30;99.90;;;;;;4920944;29;20082;-75
2022/01/06 07:53:48;;;;;;;11.48;2.95;;;2.30;99.90;;;;;;4921248;29;20055;-74
2022/01/06 07:56:13;;;;;;;;;;;2.30;99.90;;;;;;4920744;29;20100;-74
2022/01/06 07:58:39;;;;;;;8.60;3.30;;;2.30;99.90;;;;;;4920599;29;19922;-75
2022/01/06 08:01:04;;;;;;;;;;;2.30;99.90;;;;;;4921715;29;20043;-75
2022/01/06 08:03:30;;;;;;;7.68;2.70;;;2.20;99.90;;;;;;4919871;29;19927;-74
2022/01/06 08:05:55;;;;;;;;;;;2.30;99.90;;;;;;4921422;29;20135;-75
2022/01/06 08:08:21;;;;;;;8.60;2.60;;;2.30;99.90;;;;;;4920425;29;19922;-75
2022/01/06 08:10:47;;;;;;;;;;;2.30;99.90;;;;;;4921003;29;20055;-75
2022/01/06 08:13:12;;;;;;;6.15;1.60;;;2.30;99.90;;;;;;4920264;29;19934;-76
2022/01/06 08:15:38;;;;;;;;;;;2.30;99.90;;;;;;4936286;29;20094;-76
2022/01/06 08:18:03;;;;;;;4.68;1.58;;;2.40;99.90;;;;;;4921099;29;19923;-77
2022/01/06 08:20:29;;;;;;;;;;;2.40;99.90;;;;;;4921089;29;20523;-78
2022/01/06 08:22:55;;;;;;;6.00;1.92;;;2.40;99.90;;;;;;4919813;29;20418;-76
2022/01/06 08:25:21;;;;;;;;;;;2.40;99.90;;;;;;4922074;29;20044;-77
2022/01/06 08:27:46;;;;;;;5.30;1.27;;;2.30;99.90;;;;;;4947468;29;20378;-75
2022/01/06 08:30:12;;;;;;;;;;;2.30;99.90;;;;;;4937081;29;20040;-75
2022/01/06 08:32:37;;;;;;;6.00;1.83;;;2.40;99.90;;;;;;4936028;29;19930;-75
2022/01/06 08:35:03;;;;;;;;;;;2.40;99.90;;;;;;4957273;29;20053;-75
2022/01/06 08:37:29;;;;;;;4.97;1.48;;;2.40;99.90;;;;;;4956030;29;19922;-78
2022/01/06 08:39:55;;;;;;;;;;;2.40;99.90;;;;;;4924240;29;20213;-76
2022/01/06 08:42:20;;;;;;;8.32;1.63;;;2.50;99.90;;;;;;4915977;29;19923;-77
2022/01/06 09:03:49;;;;;;;7.28;1.60;;;4.80;99.90;;;;;;5483605;23;20058;-84
2022/01/06 09:06:52;;;;;;;4.47;1.73;;;4.60;99.90;;;;;;4937998;29;20048;-78
2022/01/06 09:09:56;;;;;;;7.80;1.85;;;4.60;99.90;;;;;;4948209;28;20134;-79
2022/01/06 09:12:45;;;;;;;8.48;1.80;;;6.60;99.90;;;;;;4957397;28;20173;-74
2022/01/06 09:22:21;;;;;;;6.95;1.85;;;7.00;99.90;;;;;;4949463;29;20051;-84
2022/01/06 09:52:24;;;;;;;20.20;15.90;;;12.20;99.90;;;;;;5293884;23;20303;-79
2022/01/06 09:54:56;;;;;;;10.55;5.60;;;12.80;99.90;;;;;;4966548;28;20372;-77
2022/01/06 09:57:21;;;;;;;9.48;2.55;;;13.10;97.20;;;;;;4967279;28;20513;-80
2022/01/06 09:59:48;;;;;;;;;;;13.30;99.50;;;;;;4958277;28;20047;-77
2022/01/06 10:02:17;;;;;;;7.18;1.90;;;13.40;97.00;;;;;;4968456;28;19926;-78
2022/01/06 10:04:44;;;;;;;8.75;2.30;;;13.20;97.50;;;;;;4960652;28;20514;-78
2022/01/06 10:07:10;;;;;;;7.13;3.08;;;13.40;97.40;;;;;;4960968;28;20043;-77
2022/01/06 10:09:39;;;;;;;7.68;2.17;;;13.40;96.20;;;;;;4968519;28;20068;-77
2022/01/06 10:12:11;;;;;;;9.60;2.45;;;13.60;97.60;;;;;;4972626;28;20043;-75
2022/01/06 10:14:50;;;;;;;10.15;2.30;;;13.80;96.20;;;;;;4973818;28;20549;-74
2022/01/06 10:17:30;;;;;;;7.90;2.30;;;14.20;98.20;;;;;;4938510;28;20058;-80
2022/01/06 10:19:56;;;;;;;7.47;2.38;;;14.60;96.90;;;;;;4974059;28;20046;-76
2022/01/06 10:22:22;;;;;;;5.50;2.35;;;14.80;97.50;;;;;;4981734;28;20432;-84
2022/01/06 10:24:50;;;;;;;8.27;2.60;;;15.40;97.80;;;;;;4987532;28;20034;-77
2022/01/06 10:27:19;;;;;;;8.27;2.15;;;15.80;94.10;;;;;;4991346;28;20532;-81
2022/01/06 10:29:50;;;;;;;14.63;6.88;;;15.60;95.70;;;;;;4985931;28;20487;-81
2022/01/06 10:32:19;;;;;;;10.48;3.08;;;16.10;96.20;;;;;;4985270;28;20062;-81
2022/01/06 10:34:51;;;;;;;11.70;5.00;;;16.20;94.10;;;;;;4960665;28;20054;-78
2022/01/06 10:37:26;;;;;;;9.90;2.30;;;17.30;95.80;;;;;;4960633;28;20046;-79
2022/01/06 10:40:04;;;;;;;14.00;3.22;;;16.10;94.00;;;;;;4954192;28;20483;-88
2022/01/06 10:42:32;;;;;;;9.88;2.83;;;16.20;93.60;;;;;;4962366;28;20053;-81
2022/01/06 10:45:08;;;;;;;8.88;2.72;;;16.30;93.00;;;;;;4972152;28;20050;-82
2022/01/06 10:47:40;;;;;;;8.77;2.70;;;15.20;94.40;;;;;;4962906;28;20053;-76
2022/01/06 10:50:17;;;;;;;7.45;2.40;;;14.50;96.60;;;;;;4954117;28;20119;-77
2022/01/06 10:52:54;;;;;;;9.75;2.70;;;14.00;96.80;;;;;;4939842;29;20062;-80
2022/01/06 10:55:29;;;;;;;11.32;4.93;;;13.50;98.50;;;;;;4939674;28;20039;-81
2022/01/06 10:58:22;;;;;;;8.63;2.70;;;11.70;99.90;;;;;;4947371;28;20043;-84
2022/01/06 11:00:56;;;;;;;24.30;17.48;;;10.70;99.90;;;;;;4955425;28;20202;-80
2022/01/06 11:03:24;;;;;;;21.88;16.15;;;10.50;99.90;;;;;;4968369;28;20043;-79
2022/01/06 11:05:58;;;;;;;10.98;3.13;;;10.60;99.90;;;;;;4972799;28;20034;-80
2022/01/06 11:08:27;;;;;;;6.35;2.00;;;11.30;99.90;;;;;;4988101;28;20125;-78
2022/01/06 11:11:13;;;;;;;8.82;2.10;;;13.50;99.90;;;;;;4954980;28;20078;-78
2022/01/06 11:13:42;;;;;;;6.88;2.13;;;14.30;98.00;;;;;;4973713;28;20497;-80
2022/01/06 11:16:09;;;;;;;8.43;1.80;;;15.00;93.90;;;;;;4986103;28;20046;-81
2022/01/06 11:18:42;;;;;;;7.88;1.77;;;15.80;95.50;;;;;;4969946;28;20038;-82
2022/01/06 11:21:11;;;;;;;8.65;2.38;;;16.00;95.20;;;;;;4958777;28;20048;-81
2022/01/06 11:23:37;;;;;;;5.75;1.75;;;16.70;92.60;;;;;;4952672;28;20126;-82
2022/01/06 11:26:11;;;;;;;8.30;2.80;;;16.80;90.80;;;;;;4979799;28;20118;-88
2022/01/06 11:28:37;;;;;;;6.43;2.53;;;16.40;91.80;;;;;;4947310;28;20054;-79
2022/01/06 11:31:18;;;;;;;11.52;5.63;;;17.00;93.40;;;;;;4962135;28;20490;-83
2022/01/06 11:33:46;;;;;;;8.63;2.22;;;17.40;94.50;;;;;;4967047;28;20042;-77
2022/01/06 11:38:49;;;;;;;8.70;2.53;;;17.60;93.10;;;;;;5519621;23;20118;-82
2022/01/06 11:41:16;;;;;;;9.45;2.63;;;17.50;92.90;;;;;;4946784;29;20470;-78
2022/01/06 11:46:17;;;;;;;9.67;2.10;;;17.70;92.30;;;;;;4712552;26;20063;-79
2022/01/06 11:48:58;;;;;;;12.25;2.60;;;17.80;90.70;;;;;;4939546;29;20150;-82
2022/01/06 11:51:29;;;;;;;5.25;1.98;;;17.70;92.60;;;;;;4923123;29;20051;-81
2022/01/06 11:53:56;;;;;;;6.70;2.17;;;17.80;93.10;;;;;;4942610;29;20079;-82
2022/01/06 11:56:23;;;;;;;8.85;2.20;;;17.90;92.80;;;;;;4922685;29;20051;-79
2022/01/06 11:59:02;;;;;;;6.53;2.10;;;17.80;91.60;;;;;;4936700;29;20087;-85
2022/01/06 12:01:28;;;;;;;6.72;2.13;;;18.00;89.90;;;;;;4957799;28;20495;-83
2022/01/06 12:03:54;;;;;;;7.53;2.78;;;18.10;85.80;;;;;;4938447;29;20058;-85
2022/01/06 12:06:33;;;;;;;7.13;2.10;;;18.70;91.40;;;;;;4956781;29;20035;-81
2022/01/06 12:08:59;;;;;;;5.70;2.00;;;18.50;90.20;;;;;;4961366;28;20039;-81
2022/01/06 12:11:33;;;;;;;6.65;2.08;;;18.70;88.50;;;;;;4961916;28;20396;-88
2022/01/06 12:14:00;;;;;;;7.97;2.60;;;18.50;84.60;;;;;;4956578;29;20039;-82
2022/01/06 12:16:33;;;;;;;10.93;4.13;;;18.70;83.20;;;;;;4950667;28;20047;-81
2022/01/06 12:18:59;;;;;;;5.15;2.10;;;18.10;84.10;;;;;;4933268;29;20099;-78
2022/01/06 12:21:26;;;;;;;4.03;1.30;;;17.70;78.20;;;;;;4937382;29;20530;-78
2022/01/06 12:24:06;;;;;;;6.97;1.60;;;17.80;80.70;;;;;;4956061;29;20043;-78
2022/01/06 12:26:34;;;;;;;3.63;1.40;;;18.40;81.00;;;;;;4948220;29;20043;-79
2022/01/06 12:29:06;;;;;;;6.30;1.58;;;17.90;83.60;;;;;;4938737;29;20082;-81
2022/01/06 12:31:35;;;;;;;8.23;1.63;;;17.80;83.60;;;;;;4939158;29;20054;-83
2022/01/06 12:34:02;;;;;;;5.97;1.38;;;18.00;79.80;;;;;;4931141;29;20484;-78
2022/01/06 12:36:32;;;;;;;4.85;1.70;;;18.00;81.00;;;;;;4918728;29;20127;-84
2022/01/06 12:39:27;;;;;;;6.78;2.90;;;17.90;83.60;;;;;;4923909;29;20387;-80
2022/01/06 12:41:53;;;;;;;4.10;1.52;;;17.90;88.80;;;;;;4938136;29;20120;-79
2022/01/06 12:44:24;;;;;;;4.75;1.13;;;17.30;78.20;;;;;;4933403;29;20051;-78
2022/01/06 12:46:57;;;;;;;4.78;1.30;;;17.00;81.50;;;;;;4954353;28;20082;-84
2022/01/06 12:49:24;;;;;;;8.77;1.58;;;16.60;84.70;;;;;;4926033;29;20122;-80
2022/01/06 12:51:50;;;;;;;6.18;1.58;;;16.50;90.20;;;;;;4936840;29;20074;-83
2022/01/06 12:54:18;;;;;;;4.93;1.50;;;16.10;91.40;;;;;;4935991;29;20047;-91
2022/01/06 12:56:53;;;;;;;5.97;1.65;;;16.40;90.80;;;;;;4930495;29;20546;-85
2022/01/06 12:59:24;;;;;;;5.82;1.73;;;16.60;90.80;;;;;;4925862;29;20094;-81
2022/01/06 13:01:58;;;;;;;7.10;1.70;;;16.20;89.10;;;;;;4930654;29;20047;-77
2022/01/06 13:04:26;;;;;;;8.70;2.28;;;15.90;90.00;;;;;;4928012;29;20043;-78
2022/01/06 13:07:04;;;;;;;8.70;2.65;;;15.00;92.60;;;;;;4936677;29;20510;-80
2022/01/06 13:09:31;;;;;;;5.40;1.90;;;14.40;95.00;;;;;;4937519;29;20085;-76
2022/01/06 13:11:59;;;;;;;9.73;3.78;;;14.20;95.10;;;;;;4928693;29;20082;-77
2022/01/06 13:14:31;;;;;;;7.57;1.92;;;14.20;95.20;;;;;;4936584;29;20048;-83
2022/01/06 13:39:06;;;;;;;8.95;2.40;;;9.50;99.90;;;;;;4952772;28;20042;-78
2022/01/06 13:41:52;;;;;;;5.85;2.20;;;8.60;99.90;;;;;;4935368;28;20058;-75
2022/01/06 13:44:19;;;;;;;4.50;1.45;;;8.20;99.90;;;;;;4937232;28;20054;-75
2022/01/06 13:47:18;;;;;;;8.45;1.70;;;8.10;99.90;;;;;;4947316;28;20043;-79
2022/01/06 13:52:29;;;;;;;6.65;1.85;;;7.90;99.90;;;;;;4919286;28;20047;-81
2022/01/06 13:54:56;;;;;;;;;;;7.90;99.90;;;;;;4951968;28;20045;-78
2022/01/06 13:57:22;;;;;;;5.60;1.95;;;7.70;99.90;;;;;;4953192;28;19922;-74
2022/01/06 13:59:50;;;;;;;5.50;1.45;;;7.60;99.90;;;;;;4944141;28;20422;-83
2022/01/06 14:02:17;;;;;;;;;;;7.40;99.90;;;;;;4933250;29;20050;-73
2022/01/06 14:04:46;;;;;;;9.65;2.70;;;7.20;99.90;;;;;;4945526;28;20390;-74
2022/01/06 14:07:13;;;;;;;5.47;2.47;;;6.50;99.90;;;;;;4923403;29;20051;-76
2022/01/06 14:09:39;;;;;;;8.40;2.50;;;7.10;99.90;;;;;;4927317;29;20090;-75
2022/01/06 14:12:05;;;;;;;;;;;6.50;99.90;;;;;;4954591;28;20065;-84
2022/01/06 14:14:31;;;;;;;5.90;1.42;;;6.40;99.90;;;;;;4952365;28;19923;-78
2022/01/06 14:16:56;;;;;;;;;;;6.30;99.90;;;;;;4938168;28;20040;-78
2022/01/06 14:19:23;;;;;;;5.53;1.50;;;6.10;99.90;;;;;;4959651;28;19922;-76
2022/01/06 14:21:48;;;;;;;6.72;2.42;;;6.00;99.90;;;;;;4931437;29;20123;-86
2022/01/06 14:24:14;;;;;;;;;;;6.00;99.90;;;;;;4935993;29;20134;-83
2022/01/06 14:34:32;;;;;;;5.97;1.70;;;5.90;99.90;;;;;;4962689;28;20050;-74
2022/01/06 14:36:58;;;;;;;5.45;1.73;;;5.90;99.90;;;;;;4933289;29;20062;-86
2022/01/06 14:39:24;;;;;;;;;;;5.90;99.90;;;;;;4941229;28;20049;-79
2022/01/06 14:41:50;;;;;;;4.38;1.50;;;6.00;99.90;;;;;;4949219;29;19977;-80
2022/01/06 14:44:19;;;;;;;;;;;6.20;99.90;;;;;;4936309;29;20602;-76
2022/01/06 14:46:46;;;;;;;4.88;1.33;;;6.10;99.90;;;;;;4925577;29;19923;-75
2022/01/06 14:49:12;;;;;;;3.72;1.20;;;6.00;99.90;;;;;;4920131;29;20110;-79
2022/01/06 14:51:37;;;;;;;;;;;6.00;99.90;;;;;;4952820;29;20047;-72
2022/01/06 14:54:03;;;;;;;3.35;1.10;;;6.00;99.90;;;;;;4935687;29;20347;-77
2022/01/06 14:56:29;;;;;;;;;;;5.90;99.90;;;;;;4942461;28;20061;-75
2022/01/06 14:58:54;;;;;;;4.47;2.60;;;5.80;99.90;;;;;;4950774;28;19922;-87
2022/01/06 15:01:20;;;;;;;;;;;5.70;99.90;;;;;;4930911;28;20608;-80